Terminal Aerodrome Forecast
Issued by NWS North Platte, NE

Home | Current Version | Previous Version | Graphics & Text | Print | Product List | Glossary On
Versions: 1 2 3 4 5 6 7 8 9 10 11 12 13 14 15 16 17 18
000
FTUS43 KLBF 240700 AAA
TAFVTN
TAF AMD
KVTN 240735Z 2408/2506 15011KT P6SM SCT250
     FM241500 19016G23KT P6SM BKN250
     FM242200 21012KT P6SM SCT150 BKN200=

USA.gov is the U.S. government's official web portal to all federal, state and local government web resources and services.